sensor_id;sensor_type;location;lat;lon;timestamp;pressure;altitude;pressure_sealevel;temperature;humidity
51053;BME280;37093;37.716;-122.060;2022-11-15T00:01:09;100216.94;;;17.91;23.93
51053;BME280;37093;37.716;-122.060;2022-11-15T00:03:42;100215.96;;;19.81;22.23
51053;BME280;37093;37.716;-122.060;2022-11-15T00:06:11;100214.93;;;19.60;22.74
51053;BME280;37093;37.716;-122.060;2022-11-15T00:08:39;100212.87;;;18.95;21.57
51053;BME280;37093;37.716;-122.060;2022-11-15T00:11:11;100216.86;;;19.22;22.32
51053;BME280;37093;37.716;-122.060;2022-11-15T00:13:40;100219.21;;;19.58;21.31
51053;BME280;37093;37.716;-122.060;2022-11-15T00:16:09;100223.55;;;19.22;22.15
51053;BME280;37093;37.716;-122.060;2022-11-15T00:18:39;100224.04;;;19.61;23.45
51053;BME280;37093;37.716;-122.060;2022-11-15T00:21:09;100221.97;;;19.13;22.72
51053;BME280;37093;37.716;-122.060;2022-11-15T00:23:38;100222.50;;;19.51;23.16
51053;BME280;37093;37.716;-122.060;2022-11-15T00:26:08;100222.57;;;19.67;23.48
51053;BME280;37093;37.716;-122.060;2022-11-15T00:28:39;100225.29;;;19.48;23.13
51053;BME280;37093;37.716;-122.060;2022-11-15T00:31:09;100225.94;;;19.62;22.96
51053;BME280;37093;37.716;-122.060;2022-11-15T00:33:39;100227.53;;;19.66;24.87
51053;BME280;37093;37.716;-122.060;2022-11-15T00:36:09;100227.64;;;19.46;24.71
51053;BME280;37093;37.716;-122.060;2022-11-15T00:38:39;100229.49;;;19.63;23.79
51053;BME280;37093;37.716;-122.060;2022-11-15T00:41:08;100232.45;;;19.36;23.64
51053;BME280;37093;37.716;-122.060;2022-11-15T00:43:36;100236.39;;;19.55;24.29
51053;BME280;37093;37.716;-122.060;2022-11-15T00:46:04;100233.17;;;19.56;24.44
51053;BME280;37093;37.716;-122.060;2022-11-15T00:48:34;100233.71;;;19.29;24.07
51053;BME280;37093;37.716;-122.060;2022-11-15T00:51:02;100234.37;;;19.65;24.12
51053;BME280;37093;37.716;-122.060;2022-11-15T00:53:31;100234.51;;;19.39;23.79
51053;BME280;37093;37.716;-122.060;2022-11-15T00:55:59;100232.97;;;19.47;23.93
51053;BME280;37093;37.716;-122.060;2022-11-15T00:58:28;100231.90;;;19.39;23.90
51053;BME280;37093;37.716;-122.060;2022-11-15T01:00:56;100235.31;;;18.83;24.41
51053;BME280;37093;37.716;-122.060;2022-11-15T01:03:25;100239.07;;;18.72;24.37
51053;BME280;37093;37.716;-122.060;2022-11-15T01:05:53;100239.77;;;19.09;24.11
51053;BME280;37093;37.716;-122.060;2022-11-15T01:08:22;100242.38;;;18.73;23.73
51053;BME280;37093;37.716;-122.060;2022-11-15T01:10:50;100239.13;;;18.68;23.53
51053;BME280;37093;37.716;-122.060;2022-11-15T01:13:19;100240.60;;;18.64;24.54
51053;BME280;37093;37.716;-122.060;2022-11-15T01:15:48;100239.39;;;18.73;24.62
51053;BME280;37093;37.716;-122.060;2022-11-15T01:18:16;100239.40;;;18.73;24.83
51053;BME280;37093;37.716;-122.060;2022-11-15T01:20:45;100240.65;;;18.48;24.74
51053;BME280;37093;37.716;-122.060;2022-11-15T01:23:13;100244.33;;;18.58;24.38
51053;BME280;37093;37.716;-122.060;2022-11-15T01:25:42;100250.11;;;18.22;24.56
51053;BME280;37093;37.716;-122.060;2022-11-15T01:28:11;100251.81;;;18.22;25.17
51053;BME280;37093;37.716;-122.060;2022-11-15T01:30:39;100254.27;;;18.02;24.71
51053;BME280;37093;37.716;-122.060;2022-11-15T01:33:08;100260.01;;;18.19;24.77
51053;BME280;37093;37.716;-122.060;2022-11-15T01:35:39;100260.37;;;17.74;24.98
51053;BME280;37093;37.716;-122.060;2022-11-15T01:38:08;100265.33;;;18.24;24.78
51053;BME280;37093;37.716;-122.060;2022-11-15T01:40:37;100267.10;;;17.85;25.57
51053;BME280;37093;37.716;-122.060;2022-11-15T01:43:28;100272.12;;;17.97;25.75
51053;BME280;37093;37.716;-122.060;2022-11-15T01:46:00;100272.89;;;18.18;25.30
51053;BME280;37093;37.716;-122.060;2022-11-15T01:48:33;100269.79;;;17.78;25.18
51053;BME280;37093;37.716;-122.060;2022-11-15T01:51:06;100270.67;;;17.97;25.65
51053;BME280;37093;37.716;-122.060;2022-11-15T01:53:36;100271.95;;;17.94;25.39
51053;BME280;37093;37.716;-122.060;2022-11-15T01:56:09;100274.28;;;17.87;25.87
51053;BME280;37093;37.716;-122.060;2022-11-15T01:58:41;100277.04;;;17.82;26.06
51053;BME280;37093;37.716;-122.060;2022-11-15T02:01:11;100278.09;;;17.70;25.35
51053;BME280;37093;37.716;-122.060;2022-11-15T02:03:46;100280.86;;;17.60;25.75
51053;BME280;37093;37.716;-122.060;2022-11-15T02:06:15;100279.36;;;17.52;25.40
51053;BME280;37093;37.716;-122.060;2022-11-15T02:08:44;100279.67;;;17.45;26.04
51053;BME280;37093;37.716;-122.060;2022-11-15T02:11:12;100276.08;;;17.35;25.87
51053;BME280;37093;37.716;-122.060;2022-11-15T02:13:41;100278.57;;;17.23;26.76
51053;BME280;37093;37.716;-122.060;2022-11-15T02:16:15;100280.27;;;17.23;26.50
51053;BME280;37093;37.716;-122.060;2022-11-15T02:18:55;100282.19;;;17.23;26.24
51053;BME280;37093;37.716;-122.060;2022-11-15T02:21:30;100285.58;;;17.11;25.94
51053;BME280;37093;37.716;-122.060;2022-11-15T02:24:30;100294.25;;;17.07;26.31
51053;BME280;37093;37.716;-122.060;2022-11-15T02:27:26;100300.38;;;17.07;26.40
51053;BME280;37093;37.716;-122.060;2022-11-15T02:30:23;100305.45;;;17.06;26.28
51053;BME280;37093;37.716;-122.060;2022-11-15T02:32:57;100306.93;;;16.97;26.59
51053;BME280;37093;37.716;-122.060;2022-11-15T02:35:34;100309.68;;;16.84;26.73
51053;BME280;37093;37.716;-122.060;2022-11-15T02:38:11;100312.80;;;16.96;26.76
51053;BME280;37093;37.716;-122.060;2022-11-15T02:40:48;100316.22;;;17.04;26.62
51053;BME280;37093;37.716;-122.060;2022-11-15T02:43:25;100318.17;;;17.05;26.72
51053;BME280;37093;37.716;-122.060;2022-11-15T02:46:01;100319.06;;;16.55;27.13
51053;BME280;37093;37.716;-122.060;2022-11-15T02:48:32;100322.69;;;16.57;26.69
51053;BME280;37093;37.716;-122.060;2022-11-15T02:51:01;100329.10;;;16.64;27.08
51053;BME280;37093;37.716;-122.060;2022-11-15T02:53:30;100336.31;;;16.84;27.24
51053;BME280;37093;37.716;-122.060;2022-11-15T02:55:59;100342.22;;;16.61;27.64
51053;BME280;37093;37.716;-122.060;2022-11-15T02:58:59;100346.50;;;16.88;27.87
51053;BME280;37093;37.716;-122.060;2022-11-15T03:01:43;100349.28;;;16.89;27.48
51053;BME280;37093;37.716;-122.060;2022-11-15T03:04:22;100347.55;;;16.85;26.71
51053;BME280;37093;37.716;-122.060;2022-11-15T03:07:00;100346.33;;;16.49;27.56
51053;BME280;37093;37.716;-122.060;2022-11-15T03:09:34;100346.08;;;16.41;27.54
51053;BME280;37093;37.716;-122.060;2022-11-15T03:12:25;100344.95;;;16.47;26.98
51053;BME280;37093;37.716;-122.060;2022-11-15T03:15:00;100346.70;;;15.85;28.15
51053;BME280;37093;37.716;-122.060;2022-11-15T03:17:33;100345.86;;;14.46;29.47
51053;BME280;37093;37.716;-122.060;2022-11-15T03:20:06;100347.91;;;14.23;29.53
51053;BME280;37093;37.716;-122.060;2022-11-15T03:22:42;100344.87;;;15.30;29.26
51053;BME280;37093;37.716;-122.060;2022-11-15T03:25:18;100345.54;;;15.11;29.08
51053;BME280;37093;37.716;-122.060;2022-11-15T03:27:51;100343.82;;;15.63;29.03
51053;BME280;37093;37.716;-122.060;2022-11-15T03:30:21;100348.70;;;15.22;28.55
51053;BME280;37093;37.716;-122.060;2022-11-15T03:32:53;100349.16;;;15.23;28.35
51053;BME280;37093;37.716;-122.060;2022-11-15T03:35:25;100356.48;;;15.14;28.73
51053;BME280;37093;37.716;-122.060;2022-11-15T03:37:59;100354.99;;;15.44;28.17
51053;BME280;37093;37.716;-122.060;2022-11-15T03:40:33;100354.76;;;15.30;28.74
51053;BME280;37093;37.716;-122.060;2022-11-15T03:43:09;100354.24;;;15.29;28.90
51053;BME280;37093;37.716;-122.060;2022-11-15T03:45:43;100355.18;;;15.21;28.70
51053;BME280;37093;37.716;-122.060;2022-11-15T03:48:16;100355.20;;;15.29;29.58
51053;BME280;37093;37.716;-122.060;2022-11-15T03:50:46;100350.72;;;14.99;29.68
51053;BME280;37093;37.716;-122.060;2022-11-15T03:53:15;100350.96;;;15.08;29.21
51053;BME280;37093;37.716;-122.060;2022-11-15T03:55:45;100351.42;;;14.85;29.83
51053;BME280;37093;37.716;-122.060;2022-11-15T03:58:13;100350.64;;;14.95;29.76
51053;BME280;37093;37.716;-122.060;2022-11-15T04:00:42;100353.37;;;14.76;29.82
51053;BME280;37093;37.716;-122.060;2022-11-15T04:03:10;100355.87;;;15.12;29.55
51053;BME280;37093;37.716;-122.060;2022-11-15T04:05:39;100355.53;;;15.14;29.66
51053;BME280;37093;37.716;-122.060;2022-11-15T04:08:07;100357.00;;;15.01;29.48
51053;BME280;37093;37.716;-122.060;2022-11-15T04:10:36;100359.31;;;14.83;29.84
51053;BME280;37093;37.716;-122.060;2022-11-15T04:13:04;100355.96;;;14.87;29.93
51053;BME280;37093;37.716;-122.060;2022-11-15T04:15:33;100354.18;;;14.83;29.99
51053;BME280;37093;37.716;-122.060;2022-11-15T04:18:01;100356.67;;;14.78;30.03
51053;BME280;37093;37.716;-122.060;2022-11-15T04:20:31;100360.06;;;14.95;30.27
51053;BME280;37093;37.716;-122.060;2022-11-15T04:23:01;100361.44;;;14.98;30.12
51053;BME280;37093;37.716;-122.060;2022-11-15T04:25:30;100361.42;;;15.03;30.07
51053;BME280;37093;37.716;-122.060;2022-11-15T04:27:58;100362.63;;;15.08;30.19
51053;BME280;37093;37.716;-122.060;2022-11-15T04:30:27;100366.14;;;14.69;30.07
51053;BME280;37093;37.716;-122.060;2022-11-15T04:32:55;100370.53;;;14.86;29.80
51053;BME280;37093;37.716;-122.060;2022-11-15T04:35:24;100374.21;;;14.81;30.04
51053;BME280;37093;37.716;-122.060;2022-11-15T04:37:53;100375.03;;;14.65;29.86
51053;BME280;37093;37.716;-122.060;2022-11-15T04:40:22;100373.11;;;14.80;30.07
51053;BME280;37093;37.716;-122.060;2022-11-15T04:42:50;100375.08;;;14.74;30.26
51053;BME280;37093;37.716;-122.060;2022-11-15T04:45:19;100376.98;;;14.67;30.03
51053;BME280;37093;37.716;-122.060;2022-11-15T04:47:48;100380.28;;;14.74;30.38
51053;BME280;37093;37.716;-122.060;2022-11-15T04:50:17;100382.62;;;14.69;29.95
51053;BME280;37093;37.716;-122.060;2022-11-15T04:52:52;100384.80;;;14.78;30.12
51053;BME280;37093;37.716;-122.060;2022-11-15T04:55:21;100388.61;;;14.38;30.52
51053;BME280;37093;37.716;-122.060;2022-11-15T04:57:58;100389.04;;;14.55;30.18
51053;BME280;37093;37.716;-122.060;2022-11-15T05:00:27;100391.45;;;14.65;30.21
51053;BME280;37093;37.716;-122.060;2022-11-15T05:02:55;100389.23;;;14.73;30.42
51053;BME280;37093;37.716;-122.060;2022-11-15T05:05:24;100394.97;;;14.44;30.35
51053;BME280;37093;37.716;-122.060;2022-11-15T05:07:53;100395.65;;;14.63;30.02
51053;BME280;37093;37.716;-122.060;2022-11-15T05:10:21;100397.01;;;14.59;30.31
51053;BME280;37093;37.716;-122.060;2022-11-15T05:12:49;100398.61;;;14.53;30.20
51053;BME280;37093;37.716;-122.060;2022-11-15T05:15:18;100400.65;;;14.55;30.57
51053;BME280;37093;37.716;-122.060;2022-11-15T05:17:47;100399.18;;;14.54;30.43
51053;BME280;37093;37.716;-122.060;2022-11-15T05:20:16;100401.49;;;14.52;30.57
51053;BME280;37093;37.716;-122.060;2022-11-15T05:22:44;100407.61;;;14.60;30.40
51053;BME280;37093;37.716;-122.060;2022-11-15T05:25:12;100409.29;;;14.55;30.50
51053;BME280;37093;37.716;-122.060;2022-11-15T05:27:41;100409.46;;;14.74;30.53
51053;BME280;37093;37.716;-122.060;2022-11-15T05:30:09;100409.53;;;14.26;30.16
51053;BME280;37093;37.716;-122.060;2022-11-15T05:32:38;100411.03;;;14.57;30.06
51053;BME280;37093;37.716;-122.060;2022-11-15T05:35:11;100416.59;;;14.41;30.43
51053;BME280;37093;37.716;-122.060;2022-11-15T05:37:41;100411.81;;;14.69;30.78
51053;BME280;37093;37.716;-122.060;2022-11-15T05:40:10;100411.49;;;14.29;30.65
51053;BME280;37093;37.716;-122.060;2022-11-15T05:42:39;100415.26;;;14.12;30.66
51053;BME280;37093;37.716;-122.060;2022-11-15T05:45:09;100419.44;;;14.26;30.41
51053;BME280;37093;37.716;-122.060;2022-11-15T05:47:38;100419.72;;;14.51;30.40
51053;BME280;37093;37.716;-122.060;2022-11-15T05:50:08;100424.86;;;14.47;30.90
51053;BME280;37093;37.716;-122.060;2022-11-15T05:52:39;100424.34;;;14.31;30.50
51053;BME280;37093;37.716;-122.060;2022-11-15T05:55:09;100430.14;;;14.26;30.49
51053;BME280;37093;37.716;-122.060;2022-11-15T05:57:38;100429.67;;;14.25;30.03
51053;BME280;37093;37.716;-122.060;2022-11-15T06:00:09;100431.17;;;14.18;30.52
51053;BME280;37093;37.716;-122.060;2022-11-15T06:02:38;100429.95;;;14.07;30.36
51053;BME280;37093;37.716;-122.060;2022-11-15T06:05:07;100432.07;;;14.01;30.57
51053;BME280;37093;37.716;-122.060;2022-11-15T06:07:35;100431.69;;;14.37;30.94
51053;BME280;37093;37.716;-122.060;2022-11-15T06:10:05;100431.37;;;14.32;31.05
51053;BME280;37093;37.716;-122.060;2022-11-15T06:12:34;100429.11;;;14.09;30.81
51053;BME280;37093;37.716;-122.060;2022-11-15T06:15:03;100423.13;;;14.28;31.03
51053;BME280;37093;37.716;-122.060;2022-11-15T06:17:32;100424.20;;;14.30;30.99
51053;BME280;37093;37.716;-122.060;2022-11-15T06:20:00;100424.59;;;14.60;30.67
51053;BME280;37093;37.716;-122.060;2022-11-15T06:22:29;100427.24;;;14.22;31.27
51053;BME280;37093;37.716;-122.060;2022-11-15T06:24:57;100425.04;;;14.24;31.41
51053;BME280;37093;37.716;-122.060;2022-11-15T06:27:25;100423.40;;;13.94;31.23
51053;BME280;37093;37.716;-122.060;2022-11-15T06:29:54;100425.24;;;14.22;31.44
51053;BME280;37093;37.716;-122.060;2022-11-15T06:32:21;100422.31;;;14.22;31.55
51053;BME280;37093;37.716;-122.060;2022-11-15T06:34:50;100424.84;;;14.22;31.05
51053;BME280;37093;37.716;-122.060;2022-11-15T06:37:18;100424.13;;;14.26;30.96
51053;BME280;37093;37.716;-122.060;2022-11-15T06:39:46;100419.87;;;14.10;31.13
51053;BME280;37093;37.716;-122.060;2022-11-15T06:42:15;100419.23;;;14.22;30.37
51053;BME280;37093;37.716;-122.060;2022-11-15T06:44:43;100417.26;;;14.21;31.00
51053;BME280;37093;37.716;-122.060;2022-11-15T06:47:12;100424.92;;;14.14;31.11
51053;BME280;37093;37.716;-122.060;2022-11-15T06:49:39;100425.02;;;14.20;30.77
51053;BME280;37093;37.716;-122.060;2022-11-15T06:52:08;100430.15;;;14.23;30.59
51053;BME280;37093;37.716;-122.060;2022-11-15T06:54:36;100432.89;;;14.22;30.91
51053;BME280;37093;37.716;-122.060;2022-11-15T06:57:05;100434.24;;;14.28;30.55
51053;BME280;37093;37.716;-122.060;2022-11-15T06:59:33;100431.80;;;14.16;30.67
51053;BME280;37093;37.716;-122.060;2022-11-15T07:02:03;100435.24;;;14.10;30.73
51053;BME280;37093;37.716;-122.060;2022-11-15T07:04:31;100436.48;;;14.08;30.76
51053;BME280;37093;37.716;-122.060;2022-11-15T07:07:00;100433.40;;;13.91;31.22
51053;BME280;37093;37.716;-122.060;2022-11-15T07:09:28;100432.25;;;13.68;31.29
51053;BME280;37093;37.716;-122.060;2022-11-15T07:11:56;100434.43;;;13.90;31.70
51053;BME280;37093;37.716;-122.060;2022-11-15T07:14:24;100435.13;;;13.99;31.18
51053;BME280;37093;37.716;-122.060;2022-11-15T07:16:52;100434.44;;;14.50;31.20
51053;BME280;37093;37.716;-122.060;2022-11-15T07:19:21;100433.53;;;13.98;31.15
51053;BME280;37093;37.716;-122.060;2022-11-15T07:21:49;100430.43;;;13.89;30.99
51053;BME280;37093;37.716;-122.060;2022-11-15T07:24:17;100430.12;;;14.08;31.66
51053;BME280;37093;37.716;-122.060;2022-11-15T07:26:45;100433.70;;;14.10;31.74
51053;BME280;37093;37.716;-122.060;2022-11-15T07:29:14;100433.54;;;14.09;31.23
51053;BME280;37093;37.716;-122.060;2022-11-15T07:31:42;100434.76;;;13.95;31.46
51053;BME280;37093;37.716;-122.060;2022-11-15T07:34:11;100437.52;;;13.76;31.46
51053;BME280;37093;37.716;-122.060;2022-11-15T07:36:39;100440.24;;;13.76;31.51
51053;BME280;37093;37.716;-122.060;2022-11-15T07:39:07;100438.32;;;14.09;31.36
51053;BME280;37093;37.716;-122.060;2022-11-15T07:41:36;100437.01;;;13.50;31.56
51053;BME280;37093;37.716;-122.060;2022-11-15T07:44:04;100436.33;;;14.08;31.56
51053;BME280;37093;37.716;-122.060;2022-11-15T07:46:32;100438.26;;;14.11;31.43
51053;BME280;37093;37.716;-122.060;2022-11-15T07:49:01;100439.15;;;14.06;31.12
51053;BME280;37093;37.716;-122.060;2022-11-15T07:51:29;100434.48;;;13.83;31.40
51053;BME280;37093;37.716;-122.060;2022-11-15T07:53:58;100440.10;;;13.63;31.54
51053;BME280;37093;37.716;-122.060;2022-11-15T07:56:26;100434.95;;;13.80;31.85
51053;BME280;37093;37.716;-122.060;2022-11-15T07:58:55;100429.40;;;13.89;31.60
51053;BME280;37093;37.716;-122.060;2022-11-15T08:01:11;100429.47;;;13.17;31.61
51053;BME280;37093;37.716;-122.060;2022-11-15T08:03:40;100430.67;;;12.77;30.84
51053;BME280;37093;37.716;-122.060;2022-11-15T08:06:08;100429.87;;;14.29;29.75
51053;BME280;37093;37.716;-122.060;2022-11-15T08:08:36;100429.38;;;15.08;29.34
51053;BME280;37093;37.716;-122.060;2022-11-15T08:11:05;100429.90;;;15.06;30.13
51053;BME280;37093;37.716;-122.060;2022-11-15T08:13:33;100431.27;;;14.20;30.74
51053;BME280;37093;37.716;-122.060;2022-11-15T08:16:01;100430.56;;;14.00;31.55
51053;BME280;37093;37.716;-122.060;2022-11-15T08:18:30;100428.44;;;13.89;31.59
51053;BME280;37093;37.716;-122.060;2022-11-15T08:21:00;100422.99;;;13.74;31.78
51053;BME280;37093;37.716;-122.060;2022-11-15T08:23:28;100426.22;;;13.64;32.00
51053;BME280;37093;37.716;-122.060;2022-11-15T08:26:01;100427.35;;;13.79;32.13
51053;BME280;37093;37.716;-122.060;2022-11-15T08:28:30;100427.75;;;13.39;33.19
51053;BME280;37093;37.716;-122.060;2022-11-15T08:30:58;100430.26;;;13.29;33.70
51053;BME280;37093;37.716;-122.060;2022-11-15T08:33:27;100434.56;;;13.77;32.81
51053;BME280;37093;37.716;-122.060;2022-11-15T08:35:57;100437.23;;;13.51;32.32
51053;BME280;37093;37.716;-122.060;2022-11-15T08:38:26;100438.71;;;13.84;32.44
51053;BME280;37093;37.716;-122.060;2022-11-15T08:40:59;100438.31;;;13.58;32.25
51053;BME280;37093;37.716;-122.060;2022-11-15T08:43:27;100435.91;;;13.60;31.65
51053;BME280;37093;37.716;-122.060;2022-11-15T08:45:56;100435.93;;;13.37;31.74
51053;BME280;37093;37.716;-122.060;2022-11-15T08:48:24;100436.46;;;13.48;32.10
51053;BME280;37093;37.716;-122.060;2022-11-15T08:50:54;100438.94;;;13.59;32.83
51053;BME280;37093;37.716;-122.060;2022-11-15T08:53:23;100440.79;;;13.74;32.60
51053;BME280;37093;37.716;-122.060;2022-11-15T08:55:51;100435.69;;;13.59;32.44
51053;BME280;37093;37.716;-122.060;2022-11-15T08:58:20;100435.52;;;13.52;32.89
51053;BME280;37093;37.716;-122.060;2022-11-15T09:00:48;100432.84;;;13.50;33.74
51053;BME280;37093;37.716;-122.060;2022-11-15T09:03:16;100436.33;;;13.06;34.07
51053;BME280;37093;37.716;-122.060;2022-11-15T09:05:45;100439.73;;;13.05;35.34
51053;BME280;37093;37.716;-122.060;2022-11-15T09:08:14;100438.22;;;13.03;34.77
51053;BME280;37093;37.716;-122.060;2022-11-15T09:10:42;100434.69;;;13.23;34.37
51053;BME280;37093;37.716;-122.060;2022-11-15T09:13:10;100436.75;;;12.98;35.55
51053;BME280;37093;37.716;-122.060;2022-11-15T09:15:38;100437.73;;;13.22;34.80
51053;BME280;37093;37.716;-122.060;2022-11-15T09:18:07;100437.50;;;13.10;33.49
51053;BME280;37093;37.716;-122.060;2022-11-15T09:20:36;100439.23;;;13.36;33.56
51053;BME280;37093;37.716;-122.060;2022-11-15T09:23:04;100439.83;;;13.33;33.52
51053;BME280;37093;37.716;-122.060;2022-11-15T09:25:33;100446.27;;;13.18;33.54
51053;BME280;37093;37.716;-122.060;2022-11-15T09:28:06;100451.68;;;13.12;33.23
51053;BME280;37093;37.716;-122.060;2022-11-15T09:30:34;100455.46;;;13.00;34.21
51053;BME280;37093;37.716;-122.060;2022-11-15T09:33:07;100457.75;;;13.07;33.74
51053;BME280;37093;37.716;-122.060;2022-11-15T09:35:36;100456.24;;;13.07;33.46
51053;BME280;37093;37.716;-122.060;2022-11-15T09:38:05;100456.05;;;13.10;33.67
51053;BME280;37093;37.716;-122.060;2022-11-15T09:40:35;100459.09;;;12.85;33.70
51053;BME280;37093;37.716;-122.060;2022-11-15T09:43:17;100455.30;;;13.01;33.37
51053;BME280;37093;37.716;-122.060;2022-11-15T09:46:06;100457.72;;;12.98;32.74
51053;BME280;37093;37.716;-122.060;2022-11-15T09:48:49;100453.06;;;13.09;32.85
51053;BME280;37093;37.716;-122.060;2022-11-15T09:51:26;100450.90;;;13.19;32.54
51053;BME280;37093;37.716;-122.060;2022-11-15T09:54:02;100452.05;;;12.93;32.37
51053;BME280;37093;37.716;-122.060;2022-11-15T09:56:36;100449.02;;;12.99;32.56
51053;BME280;37093;37.716;-122.060;2022-11-15T09:59:19;100448.95;;;13.00;32.91
51053;BME280;37093;37.716;-122.060;2022-11-15T10:01:58;100445.44;;;12.98;32.20
51053;BME280;37093;37.716;-122.060;2022-11-15T10:04:29;100449.17;;;12.53;32.91
51053;BME280;37093;37.716;-122.060;2022-11-15T10:07:04;100448.34;;;12.57;33.40
51053;BME280;37093;37.716;-122.060;2022-11-15T10:09:42;100448.83;;;12.65;33.19
51053;BME280;37093;37.716;-122.060;2022-11-15T10:12:14;100447.73;;;12.75;32.90
51053;BME280;37093;37.716;-122.060;2022-11-15T10:14:43;100451.45;;;12.80;33.20
51053;BME280;37093;37.716;-122.060;2022-11-15T10:17:48;100447.63;;;12.96;32.79
51053;BME280;37093;37.716;-122.060;2022-11-15T10:20:22;100456.94;;;12.90;32.70
51053;BME280;37093;37.716;-122.060;2022-11-15T10:22:54;100459.99;;;12.93;32.73
51053;BME280;37093;37.716;-122.060;2022-11-15T10:25:25;100457.68;;;12.86;32.91
51053;BME280;37093;37.716;-122.060;2022-11-15T10:27:56;100458.71;;;12.95;32.69
51053;BME280;37093;37.716;-122.060;2022-11-15T10:30:32;100458.17;;;12.99;32.61
51053;BME280;37093;37.716;-122.060;2022-11-15T10:33:13;100458.02;;;12.76;32.87
51053;BME280;37093;37.716;-122.060;2022-11-15T10:35:45;100459.52;;;12.66;32.59
51053;BME280;37093;37.716;-122.060;2022-11-15T10:38:13;100462.98;;;12.58;32.63
51053;BME280;37093;37.716;-122.060;2022-11-15T10:40:42;100462.06;;;12.43;32.99
51053;BME280;37093;37.716;-122.060;2022-11-15T10:43:16;100460.39;;;12.27;33.01
51053;BME280;37093;37.716;-122.060;2022-11-15T10:45:46;100458.82;;;12.36;33.42
51053;BME280;37093;37.716;-122.060;2022-11-15T10:48:24;100467.08;;;11.78;34.04
51053;BME280;37093;37.716;-122.060;2022-11-15T10:50:54;100471.33;;;12.62;33.76
51053;BME280;37093;37.716;-122.060;2022-11-15T10:53:29;100468.59;;;12.54;33.42
51053;BME280;37093;37.716;-122.060;2022-11-15T10:56:02;100469.78;;;12.45;32.98
51053;BME280;37093;37.716;-122.060;2022-11-15T10:58:36;100472.12;;;12.45;32.75
51053;BME280;37093;37.716;-122.060;2022-11-15T11:01:14;100471.65;;;12.45;32.92
51053;BME280;37093;37.716;-122.060;2022-11-15T11:03:44;100477.91;;;13.01;33.12
51053;BME280;37093;37.716;-122.060;2022-11-15T11:06:14;100480.16;;;12.53;33.18
51053;BME280;37093;37.716;-122.060;2022-11-15T11:08:55;100483.57;;;12.74;33.32
51053;BME280;37093;37.716;-122.060;2022-11-15T11:11:24;100487.26;;;12.63;33.21
51053;BME280;37093;37.716;-122.060;2022-11-15T11:13:53;100487.19;;;12.38;32.80
51053;BME280;37093;37.716;-122.060;2022-11-15T11:16:36;100485.48;;;12.29;33.00
51053;BME280;37093;37.716;-122.060;2022-11-15T11:19:18;100486.08;;;12.16;33.47
51053;BME280;37093;37.716;-122.060;2022-11-15T11:21:54;100487.80;;;12.44;33.34
51053;BME280;37093;37.716;-122.060;2022-11-15T11:24:33;100487.45;;;12.43;33.25
51053;BME280;37093;37.716;-122.060;2022-11-15T11:27:14;100486.05;;;12.49;33.16
51053;BME280;37093;37.716;-122.060;2022-11-15T11:29:57;100492.32;;;12.35;33.32
51053;BME280;37093;37.716;-122.060;2022-11-15T11:32:46;100498.88;;;12.30;33.27
51053;BME280;37093;37.716;-122.060;2022-11-15T11:35:22;100504.92;;;12.47;33.18
51053;BME280;37093;37.716;-122.060;2022-11-15T11:37:54;100506.15;;;12.47;32.99
51053;BME280;37093;37.716;-122.060;2022-11-15T11:40:29;100507.17;;;12.47;32.87
51053;BME280;37093;37.716;-122.060;2022-11-15T11:43:04;100508.17;;;12.55;33.05
51053;BME280;37093;37.716;-122.060;2022-11-15T11:45:49;100509.51;;;12.52;32.73
51053;BME280;37093;37.716;-122.060;2022-11-15T11:48:33;100505.55;;;12.59;32.91
51053;BME280;37093;37.716;-122.060;2022-11-15T11:51:13;100512.38;;;12.59;32.61
51053;BME280;37093;37.716;-122.060;2022-11-15T11:53:49;100514.24;;;12.56;32.92
51053;BME280;37093;37.716;-122.060;2022-11-15T11:56:25;100518.12;;;12.54;33.13
51053;BME280;37093;37.716;-122.060;2022-11-15T11:58:57;100517.77;;;12.50;33.24
51053;BME280;37093;37.716;-122.060;2022-11-15T12:01:32;100520.09;;;12.51;33.13
51053;BME280;37093;37.716;-122.060;2022-11-15T12:04:09;100518.88;;;12.42;33.09
51053;BME280;37093;37.716;-122.060;2022-11-15T12:06:46;100518.21;;;12.34;33.08
51053;BME280;37093;37.716;-122.060;2022-11-15T12:09:21;100519.59;;;12.64;33.12
51053;BME280;37093;37.716;-122.060;2022-11-15T12:11:58;100518.94;;;12.41;33.17
51053;BME280;37093;37.716;-122.060;2022-11-15T12:14:35;100516.46;;;12.37;33.36
51053;BME280;37093;37.716;-122.060;2022-11-15T12:17:10;100517.18;;;12.43;33.37
51053;BME280;37093;37.716;-122.060;2022-11-15T12:19:38;100513.62;;;12.39;33.25
51053;BME280;37093;37.716;-122.060;2022-11-15T12:22:13;100513.79;;;12.36;32.94
51053;BME280;37093;37.716;-122.060;2022-11-15T12:24:48;100509.78;;;12.25;32.73
51053;BME280;37093;37.716;-122.060;2022-11-15T12:27:24;100509.94;;;12.12;32.77
51053;BME280;37093;37.716;-122.060;2022-11-15T12:29:58;100505.58;;;12.05;32.98
51053;BME280;37093;37.716;-122.060;2022-11-15T12:32:31;100507.30;;;12.33;32.96
51053;BME280;37093;37.716;-122.060;2022-11-15T12:35:03;100504.74;;;12.15;33.10
51053;BME280;37093;37.716;-122.060;2022-11-15T12:37:55;100504.86;;;12.58;33.29
51053;BME280;37093;37.716;-122.060;2022-11-15T12:40:27;100503.63;;;11.45;32.31
51053;BME280;37093;37.716;-122.060;2022-11-15T12:43:10;100502.56;;;12.15;32.03